sensor_id;sensor_type;location;lat;lon;timestamp;pressure;altitude;pressure_sealevel;temperature;humidity
42001;BME280;27689;48.390;10.856;2023-10-09T00:00:52;96805.03;;;13.22;100.00
42001;BME280;27689;48.390;10.856;2023-10-09T00:03:44;96810.44;;;13.21;100.00
42001;BME280;27689;48.390;10.856;2023-10-09T00:06:28;96803.69;;;13.18;100.00
42001;BME280;27689;48.390;10.856;2023-10-09T00:09:21;96801.59;;;13.12;100.00
42001;BME280;27689;48.390;10.856;2023-10-09T00:12:08;96793.38;;;12.97;100.00
42001;BME280;27689;48.390;10.856;2023-10-09T00:14:54;96790.44;;;13.00;100.00
42001;BME280;27689;48.390;10.856;2023-10-09T00:17:51;96786.84;;;13.01;100.00
42001;BME280;27689;48.390;10.856;2023-10-09T00:20:38;96783.00;;;12.96;100.00
42001;BME280;27689;48.390;10.856;2023-10-09T00:23:27;96771.78;;;12.94;100.00
42001;BME280;27689;48.390;10.856;2023-10-09T00:26:11;96778.16;;;12.91;100.00
42001;BME280;27689;48.390;10.856;2023-10-09T00:28:56;96764.34;;;12.89;100.00
42001;BME280;27689;48.390;10.856;2023-10-09T00:31:41;96767.94;;;12.88;100.00
42001;BME280;27689;48.390;10.856;2023-10-09T00:34:33;96760.47;;;12.84;100.00
42001;BME280;27689;48.390;10.856;2023-10-09T00:37:24;96755.38;;;12.82;100.00
42001;BME280;27689;48.390;10.856;2023-10-09T00:40:09;96750.78;;;12.84;100.00
42001;BME280;27689;48.390;10.856;2023-10-09T00:43:04;96747.75;;;12.79;100.00
42001;BME280;27689;48.390;10.856;2023-10-09T00:45:50;96749.56;;;12.79;100.00
42001;BME280;27689;48.390;10.856;2023-10-09T00:48:35;96743.63;;;12.77;100.00
42001;BME280;27689;48.390;10.856;2023-10-09T00:51:24;96737.28;;;12.69;100.00
42001;BME280;27689;48.390;10.856;2023-10-09T00:54:10;96743.38;;;12.70;100.00
42001;BME280;27689;48.390;10.856;2023-10-09T00:56:58;96729.13;;;12.63;100.00
42001;BME280;27689;48.390;10.856;2023-10-09T00:59:54;96729.84;;;12.65;100.00
42001;BME280;27689;48.390;10.856;2023-10-09T01:02:43;96729.28;;;12.61;100.00
42001;BME280;27689;48.390;10.856;2023-10-09T01:05:28;96724.63;;;12.55;100.00
42001;BME280;27689;48.390;10.856;2023-10-09T01:08:12;96719.66;;;12.52;100.00
42001;BME280;27689;48.390;10.856;2023-10-09T01:11:00;96722.56;;;12.49;100.00
42001;BME280;27689;48.390;10.856;2023-10-09T01:13:53;96726.16;;;12.48;100.00
42001;BME280;27689;48.390;10.856;2023-10-09T01:16:38;96712.63;;;12.43;100.00
42001;BME280;27689;48.390;10.856;2023-10-09T01:19:24;96721.34;;;12.44;100.00
42001;BME280;27689;48.390;10.856;2023-10-09T01:22:08;96720.78;;;12.40;100.00
42001;BME280;27689;48.390;10.856;2023-10-09T01:24:59;96712.22;;;12.38;100.00
42001;BME280;27689;48.390;10.856;2023-10-09T01:27:43;96714.03;;;12.38;100.00
42001;BME280;27689;48.390;10.856;2023-10-09T01:30:28;96713.34;;;12.35;100.00
42001;BME280;27689;48.390;10.856;2023-10-09T01:33:11;96712.50;;;12.35;100.00
42001;BME280;27689;48.390;10.856;2023-10-09T01:36:02;96697.84;;;12.32;100.00
42001;BME280;27689;48.390;10.856;2023-10-09T01:38:47;96705.91;;;12.31;100.00
42001;BME280;27689;48.390;10.856;2023-10-09T01:41:33;96699.13;;;12.28;100.00
42001;BME280;27689;48.390;10.856;2023-10-09T01:44:18;96696.09;;;12.23;100.00
42001;BME280;27689;48.390;10.856;2023-10-09T01:47:02;96697.88;;;12.23;100.00
42001;BME280;27689;48.390;10.856;2023-10-09T01:49:51;96683.22;;;12.20;100.00
42001;BME280;27689;48.390;10.856;2023-10-09T01:52:38;96684.19;;;12.19;100.00
42001;BME280;27689;48.390;10.856;2023-10-09T01:55:22;96674.97;;;12.15;100.00
42001;BME280;27689;48.390;10.856;2023-10-09T01:58:33;96670.00;;;12.12;100.00
42001;BME280;27689;48.390;10.856;2023-10-09T02:01:17;96679.41;;;12.15;100.00
42001;BME280;27689;48.390;10.856;2023-10-09T02:04:01;96676.78;;;12.15;100.00
42001;BME280;27689;48.390;10.856;2023-10-09T02:06:51;96673.31;;;12.14;100.00
42001;BME280;27689;48.390;10.856;2023-10-09T02:09:36;96672.03;;;12.18;100.00
42001;BME280;27689;48.390;10.856;2023-10-09T02:12:28;96672.13;;;12.36;100.00
42001;BME280;27689;48.390;10.856;2023-10-09T02:15:17;96664.31;;;12.54;100.00
42001;BME280;27689;48.390;10.856;2023-10-09T02:18:21;96666.31;;;12.69;100.00
42001;BME280;27689;48.390;10.856;2023-10-09T02:21:06;96666.06;;;12.90;100.00
42001;BME280;27689;48.390;10.856;2023-10-09T02:23:50;96655.19;;;13.03;100.00
42001;BME280;27689;48.390;10.856;2023-10-09T02:26:35;96657.84;;;13.21;100.00
42001;BME280;27689;48.390;10.856;2023-10-09T02:29:37;96664.09;;;13.37;100.00
42001;BME280;27689;48.390;10.856;2023-10-09T02:32:22;96668.38;;;13.56;100.00
42001;BME280;27689;48.390;10.856;2023-10-09T02:35:10;96664.38;;;13.70;100.00
42001;BME280;27689;48.390;10.856;2023-10-09T02:38:14;96655.56;;;13.79;100.00
42001;BME280;27689;48.390;10.856;2023-10-09T02:41:01;96656.44;;;13.88;100.00
42001;BME280;27689;48.390;10.856;2023-10-09T02:43:48;96652.69;;;13.90;100.00
42001;BME280;27689;48.390;10.856;2023-10-09T02:46:38;96650.72;;;13.92;100.00
42001;BME280;27689;48.390;10.856;2023-10-09T02:49:24;96644.16;;;13.96;100.00
42001;BME280;27689;48.390;10.856;2023-10-09T02:52:09;96637.59;;;14.00;100.00
42001;BME280;27689;48.390;10.856;2023-10-09T02:54:57;96639.66;;;14.15;100.00
42001;BME280;27689;48.390;10.856;2023-10-09T02:57:44;96639.50;;;14.16;100.00
42001;BME280;27689;48.390;10.856;2023-10-09T03:00:29;96634.25;;;14.16;100.00
42001;BME280;27689;48.390;10.856;2023-10-09T03:03:15;96631.09;;;14.12;100.00
42001;BME280;27689;48.390;10.856;2023-10-09T03:06:03;96632.88;;;14.12;100.00
42001;BME280;27689;48.390;10.856;2023-10-09T03:08:54;96627.63;;;14.12;100.00
42001;BME280;27689;48.390;10.856;2023-10-09T03:11:38;96627.63;;;14.12;100.00
42001;BME280;27689;48.390;10.856;2023-10-09T03:14:23;96625.66;;;14.14;100.00
42001;BME280;27689;48.390;10.856;2023-10-09T03:17:10;96629.44;;;14.11;100.00
42001;BME280;27689;48.390;10.856;2023-10-09T03:19:57;96625.31;;;14.09;100.00
42001;BME280;27689;48.390;10.856;2023-10-09T03:22:44;96625.97;;;14.11;100.00
42001;BME280;27689;48.390;10.856;2023-10-09T03:25:32;96623.53;;;14.18;100.00
42001;BME280;27689;48.390;10.856;2023-10-09T03:28:16;96629.34;;;14.21;100.00
42001;BME280;27689;48.390;10.856;2023-10-09T03:31:00;96632.66;;;14.23;100.00
42001;BME280;27689;48.390;10.856;2023-10-09T03:33:46;96618.28;;;14.18;100.00
42001;BME280;27689;48.390;10.856;2023-10-09T03:36:31;96617.28;;;14.19;100.00
42001;BME280;27689;48.390;10.856;2023-10-09T03:39:21;96627.19;;;14.25;100.00
42001;BME280;27689;48.390;10.856;2023-10-09T03:42:17;96629.06;;;14.32;100.00
42001;BME280;27689;48.390;10.856;2023-10-09T03:45:06;96630.06;;;14.39;100.00
42001;BME280;27689;48.390;10.856;2023-10-09T03:48:01;96618.56;;;14.40;100.00
42001;BME280;27689;48.390;10.856;2023-10-09T03:50:52;96620.22;;;14.41;100.00
42001;BME280;27689;48.390;10.856;2023-10-09T03:53:52;96633.72;;;14.38;100.00
42001;BME280;27689;48.390;10.856;2023-10-09T03:56:39;96623.16;;;14.38;100.00
42001;BME280;27689;48.390;10.856;2023-10-09T03:59:23;96635.00;;;14.34;100.00
42001;BME280;27689;48.390;10.856;2023-10-09T04:02:09;96629.66;;;14.26;100.00
42001;BME280;27689;48.390;10.856;2023-10-09T04:04:53;96630.00;;;14.23;100.00
42001;BME280;27689;48.390;10.856;2023-10-09T04:07:37;96626.03;;;14.19;100.00
42001;BME280;27689;48.390;10.856;2023-10-09T04:10:21;96628.97;;;14.16;100.00
42001;BME280;27689;48.390;10.856;2023-10-09T04:13:31;96623.31;;;14.11;100.00
42001;BME280;27689;48.390;10.856;2023-10-09T04:16:19;96623.03;;;14.14;100.00
42001;BME280;27689;48.390;10.856;2023-10-09T04:19:24;96620.44;;;14.22;100.00
42001;BME280;27689;48.390;10.856;2023-10-09T04:22:08;96618.34;;;14.34;100.00
42001;BME280;27689;48.390;10.856;2023-10-09T04:25:09;96620.13;;;14.51;98.25
42001;BME280;27689;48.390;10.856;2023-10-09T04:27:59;96612.38;;;14.58;97.05
42001;BME280;27689;48.390;10.856;2023-10-09T04:30:58;96610.78;;;14.73;95.79
42001;BME280;27689;48.390;10.856;2023-10-09T04:33:47;96616.44;;;14.86;93.80
42001;BME280;27689;48.390;10.856;2023-10-09T04:37:00;96607.22;;;14.90;93.01
42001;BME280;27689;48.390;10.856;2023-10-09T04:39:45;96596.69;;;15.06;91.50
42001;BME280;27689;48.390;10.856;2023-10-09T04:42:32;96596.53;;;15.16;90.41
42001;BME280;27689;48.390;10.856;2023-10-09T04:45:22;96599.84;;;15.18;90.13
42001;BME280;27689;48.390;10.856;2023-10-09T04:48:26;96595.53;;;15.17;89.93
42001;BME280;27689;48.390;10.856;2023-10-09T04:51:19;96595.56;;;15.33;88.12
42001;BME280;27689;48.390;10.856;2023-10-09T04:54:06;96606.16;;;15.41;87.48
42001;BME280;27689;48.390;10.856;2023-10-09T04:57:08;96610.59;;;15.41;87.18
42001;BME280;27689;48.390;10.856;2023-10-09T05:00:01;96617.19;;;15.45;87.29
42001;BME280;27689;48.390;10.856;2023-10-09T05:02:48;96617.34;;;15.43;87.61
42001;BME280;27689;48.390;10.856;2023-10-09T05:05:39;96618.84;;;15.46;86.84
42001;BME280;27689;48.390;10.856;2023-10-09T05:08:27;96617.34;;;15.35;87.72
42001;BME280;27689;48.390;10.856;2023-10-09T05:11:11;96623.47;;;15.28;87.83
42001;BME280;27689;48.390;10.856;2023-10-09T05:14:14;96618.19;;;15.28;87.70
42001;BME280;27689;48.390;10.856;2023-10-09T05:17:02;96622.44;;;15.29;87.55
42001;BME280;27689;48.390;10.856;2023-10-09T05:19:50;96620.47;;;15.31;87.68
42001;BME280;27689;48.390;10.856;2023-10-09T05:23:00;96617.16;;;15.21;87.68
42001;BME280;27689;48.390;10.856;2023-10-09T05:26:04;96614.34;;;15.14;87.89
42001;BME280;27689;48.390;10.856;2023-10-09T05:29:08;96621.28;;;15.15;88.21
42001;BME280;27689;48.390;10.856;2023-10-09T05:32:04;96621.47;;;15.13;88.45
42001;BME280;27689;48.390;10.856;2023-10-09T05:34:57;96618.47;;;15.08;88.64
42001;BME280;27689;48.390;10.856;2023-10-09T05:37:44;96613.84;;;15.02;89.09
42001;BME280;27689;48.390;10.856;2023-10-09T05:40:29;96615.63;;;15.02;89.04
42001;BME280;27689;48.390;10.856;2023-10-09T05:43:14;96620.44;;;14.98;89.17
42001;BME280;27689;48.390;10.856;2023-10-09T05:46:18;96613.50;;;14.97;89.32
42001;BME280;27689;48.390;10.856;2023-10-09T05:49:02;96616.97;;;14.98;89.01
42001;BME280;27689;48.390;10.856;2023-10-09T05:52:03;96611.19;;;14.94;88.84
42001;BME280;27689;48.390;10.856;2023-10-09T05:55:07;96621.06;;;15.00;88.57
42001;BME280;27689;48.390;10.856;2023-10-09T05:58:12;96622.72;;;15.01;88.77
42001;BME280;27689;48.390;10.856;2023-10-09T06:01:15;96623.28;;;15.13;87.83
42001;BME280;27689;48.390;10.856;2023-10-09T06:04:18;96622.78;;;15.26;86.86
42001;BME280;27689;48.390;10.856;2023-10-09T06:07:03;96623.94;;;15.31;86.87
42001;BME280;27689;48.390;10.856;2023-10-09T06:09:56;96624.44;;;15.35;86.49
42001;BME280;27689;48.390;10.856;2023-10-09T06:12:40;96630.72;;;15.50;85.30
42001;BME280;27689;48.390;10.856;2023-10-09T06:15:27;96642.63;;;15.54;85.48
42001;BME280;27689;48.390;10.856;2023-10-09T06:18:35;96641.97;;;15.60;85.07
42001;BME280;27689;48.390;10.856;2023-10-09T06:21:19;96640.50;;;15.66;84.62
42001;BME280;27689;48.390;10.856;2023-10-09T06:24:32;96644.16;;;15.73;84.19
42001;BME280;27689;48.390;10.856;2023-10-09T06:27:35;96648.75;;;15.79;84.34
42001;BME280;27689;48.390;10.856;2023-10-09T06:30:18;96645.59;;;15.75;84.55
42001;BME280;27689;48.390;10.856;2023-10-09T06:33:02;96640.00;;;15.70;85.08
42001;BME280;27689;48.390;10.856;2023-10-09T06:36:03;96643.66;;;15.69;85.48
42001;BME280;27689;48.390;10.856;2023-10-09T06:38:52;96644.47;;;15.70;85.56
42001;BME280;27689;48.390;10.856;2023-10-09T06:41:56;96644.31;;;15.71;85.75
42001;BME280;27689;48.390;10.856;2023-10-09T06:44:52;96651.22;;;15.80;84.82
42001;BME280;27689;48.390;10.856;2023-10-09T06:47:36;96641.66;;;15.79;85.49
42001;BME280;27689;48.390;10.856;2023-10-09T06:50:24;96644.47;;;15.86;85.46
42001;BME280;27689;48.390;10.856;2023-10-09T06:53:08;96656.66;;;16.03;83.79
42001;BME280;27689;48.390;10.856;2023-10-09T06:55:52;96661.31;;;16.01;84.40
42001;BME280;27689;48.390;10.856;2023-10-09T06:58:44;96656.47;;;16.05;84.58
42001;BME280;27689;48.390;10.856;2023-10-09T07:01:31;96666.91;;;16.14;83.99
42001;BME280;27689;48.390;10.856;2023-10-09T07:04:29;96664.25;;;16.14;84.70
42001;BME280;27689;48.390;10.856;2023-10-09T07:07:16;96671.66;;;16.19;84.56
42001;BME280;27689;48.390;10.856;2023-10-09T07:10:05;96675.47;;;16.25;84.46
42001;BME280;27689;48.390;10.856;2023-10-09T07:13:08;96671.31;;;16.30;85.29
42001;BME280;27689;48.390;10.856;2023-10-09T07:15:52;96666.16;;;16.37;83.97
42001;BME280;27689;48.390;10.856;2023-10-09T07:19:07;96664.47;;;16.52;83.19
42001;BME280;27689;48.390;10.856;2023-10-09T07:22:14;96659.66;;;16.64;82.37
42001;BME280;27689;48.390;10.856;2023-10-09T07:25:04;96658.13;;;16.77;82.41
42001;BME280;27689;48.390;10.856;2023-10-09T07:27:58;96663.88;;;16.89;82.18
42001;BME280;27689;48.390;10.856;2023-10-09T07:30:46;96659.53;;;16.96;81.67
42001;BME280;27689;48.390;10.856;2023-10-09T07:33:30;96655.38;;;17.02;81.47
42001;BME280;27689;48.390;10.856;2023-10-09T07:36:35;96662.44;;;17.09;81.04
42001;BME280;27689;48.390;10.856;2023-10-09T07:39:22;96663.91;;;17.20;80.49
42001;BME280;27689;48.390;10.856;2023-10-09T07:42:06;96668.13;;;17.29;80.95
42001;BME280;27689;48.390;10.856;2023-10-09T07:45:03;96661.16;;;17.36;80.69
42001;BME280;27689;48.390;10.856;2023-10-09T07:48:02;96664.38;;;17.46;79.69
42001;BME280;27689;48.390;10.856;2023-10-09T07:50:48;96670.75;;;17.60;78.94
42001;BME280;27689;48.390;10.856;2023-10-09T07:53:41;96679.47;;;17.69;78.82
42001;BME280;27689;48.390;10.856;2023-10-09T07:56:28;96680.25;;;17.77;78.59
42001;BME280;27689;48.390;10.856;2023-10-09T07:59:22;96670.75;;;17.83;78.06
42001;BME280;27689;48.390;10.856;2023-10-09T08:02:07;96681.31;;;17.91;78.11
42001;BME280;27689;48.390;10.856;2023-10-09T08:05:01;96679.41;;;18.00;76.32
42001;BME280;27689;48.390;10.856;2023-10-09T08:08:02;96678.56;;;17.99;76.49
42001;BME280;27689;48.390;10.856;2023-10-09T08:11:21;96682.34;;;18.05;75.73
42001;BME280;27689;48.390;10.856;2023-10-09T08:14:34;96682.34;;;18.05;76.10
42001;BME280;27689;48.390;10.856;2023-10-09T08:17:18;96676.41;;;18.03;75.05
42001;BME280;27689;48.390;10.856;2023-10-09T08:20:06;96672.56;;;18.05;75.00
42001;BME280;27689;48.390;10.856;2023-10-09T08:22:56;96683.34;;;18.04;75.48
42001;BME280;27689;48.390;10.856;2023-10-09T08:25:39;96683.03;;;18.21;73.01
42001;BME280;27689;48.390;10.856;2023-10-09T08:28:42;96690.97;;;18.21;73.86
42001;BME280;27689;48.390;10.856;2023-10-09T08:31:32;96674.41;;;18.19;75.32
42001;BME280;27689;48.390;10.856;2023-10-09T08:34:28;96680.56;;;18.20;75.62
42001;BME280;27689;48.390;10.856;2023-10-09T08:37:12;96683.28;;;18.26;73.59
42001;BME280;27689;48.390;10.856;2023-10-09T08:39:56;96680.09;;;18.31;73.58
42001;BME280;27689;48.390;10.856;2023-10-09T08:42:41;96678.09;;;18.33;74.16
42001;BME280;27689;48.390;10.856;2023-10-09T08:45:26;96683.06;;;18.36;72.91
42001;BME280;27689;48.390;10.856;2023-10-09T08:48:11;96682.69;;;18.39;73.59
42001;BME280;27689;48.390;10.856;2023-10-09T08:51:00;96690.44;;;18.41;74.19
42001;BME280;27689;48.390;10.856;2023-10-09T08:53:50;96687.25;;;18.45;74.29
42001;BME280;27689;48.390;10.856;2023-10-09T08:56:35;96695.59;;;18.57;74.22
42001;BME280;27689;48.390;10.856;2023-10-09T08:59:20;96703.22;;;18.60;73.76
42001;BME280;27689;48.390;10.856;2023-10-09T09:02:04;96702.56;;;18.73;72.58
42001;BME280;27689;48.390;10.856;2023-10-09T09:04:48;96701.56;;;18.74;72.08
42001;BME280;27689;48.390;10.856;2023-10-09T09:07:34;96713.31;;;18.79;72.72
42001;BME280;27689;48.390;10.856;2023-10-09T09:10:29;96715.59;;;18.82;75.20
42001;BME280;27689;48.390;10.856;2023-10-09T09:13:19;96711.13;;;18.83;72.57
42001;BME280;27689;48.390;10.856;2023-10-09T09:16:03;96715.31;;;18.92;72.83
42001;BME280;27689;48.390;10.856;2023-10-09T09:18:56;96710.09;;;18.98;72.71
42001;BME280;27689;48.390;10.856;2023-10-09T09:22:07;96713.38;;;19.00;72.64
42001;BME280;27689;48.390;10.856;2023-10-09T09:24:57;96712.09;;;19.11;71.43
42001;BME280;27689;48.390;10.856;2023-10-09T09:27:47;96709.31;;;19.19;71.07
42001;BME280;27689;48.390;10.856;2023-10-09T09:30:36;96706.31;;;19.22;70.83
42001;BME280;27689;48.390;10.856;2023-10-09T09:33:28;96714.16;;;19.30;70.45
42001;BME280;27689;48.390;10.856;2023-10-09T09:36:24;96715.34;;;19.43;69.09
42001;BME280;27689;48.390;10.856;2023-10-09T09:39:13;96712.69;;;19.43;69.67
42001;BME280;27689;48.390;10.856;2023-10-09T09:42:02;96711.56;;;19.52;68.88
42001;BME280;27689;48.390;10.856;2023-10-09T09:44:58;96705.94;;;19.61;67.67
42001;BME280;27689;48.390;10.856;2023-10-09T09:47:44;96712.22;;;19.54;69.20
42001;BME280;27689;48.390;10.856;2023-10-09T09:50:35;96714.38;;;19.65;67.94
42001;BME280;27689;48.390;10.856;2023-10-09T09:53:29;96704.56;;;19.65;67.80
42001;BME280;27689;48.390;10.856;2023-10-09T09:56:19;96713.19;;;19.67;68.62
42001;BME280;27689;48.390;10.856;2023-10-09T09:59:06;96711.78;;;19.71;68.31
42001;BME280;27689;48.390;10.856;2023-10-09T10:01:55;96718.81;;;19.79;69.02
42001;BME280;27689;48.390;10.856;2023-10-09T10:04:45;96714.31;;;19.80;70.05
42001;BME280;27689;48.390;10.856;2023-10-09T10:07:34;96722.78;;;19.90;68.55
42001;BME280;27689;48.390;10.856;2023-10-09T10:10:37;96723.63;;;19.90;68.92
42001;BME280;27689;48.390;10.856;2023-10-09T10:16:24;96727.03;;;20.05;68.00
42001;BME280;27689;48.390;10.856;2023-10-09T10:19:18;96720.78;;;20.13;67.71
42001;BME280;27689;48.390;10.856;2023-10-09T10:22:28;96713.47;;;20.22;67.76
42001;BME280;27689;48.390;10.856;2023-10-09T10:31:12;96716.03;;;20.58;66.23
42001;BME280;27689;48.390;10.856;2023-10-09T10:36:43;96723.13;;;20.78;65.29
42001;BME280;27689;48.390;10.856;2023-10-09T10:39:28;96712.72;;;20.84;64.46
42001;BME280;27689;48.390;10.856;2023-10-09T10:42:27;96710.28;;;20.89;64.90
42001;BME280;27689;48.390;10.856;2023-10-09T10:45:18;96705.78;;;20.89;64.52
42001;BME280;27689;48.390;10.856;2023-10-09T10:48:22;96712.78;;;20.97;64.44
42001;BME280;27689;48.390;10.856;2023-10-09T10:51:21;96703.19;;;21.02;63.14
42001;BME280;27689;48.390;10.856;2023-10-09T10:54:08;96714.50;;;21.11;63.50
42001;BME280;27689;48.390;10.856;2023-10-09T10:57:29;96710.78;;;21.05;64.05
42001;BME280;27689;48.390;10.856;2023-10-09T11:00:13;96707.56;;;21.17;63.61
42001;BME280;27689;48.390;10.856;2023-10-09T11:03:23;96718.25;;;21.23;63.08
42001;BME280;27689;48.390;10.856;2023-10-09T11:06:13;96713.78;;;21.30;63.95
42001;BME280;27689;48.390;10.856;2023-10-09T11:08:58;96709.09;;;21.32;63.53
42001;BME280;27689;48.390;10.856;2023-10-09T11:11:52;96706.44;;;21.32;62.54
42001;BME280;27689;48.390;10.856;2023-10-09T11:14:55;96710.50;;;21.28;62.25
42001;BME280;27689;48.390;10.856;2023-10-09T11:18:13;96702.50;;;21.28;63.24
42001;BME280;27689;48.390;10.856;2023-10-09T11:21:04;96700.66;;;21.29;63.10
42001;BME280;27689;48.390;10.856;2023-10-09T11:23:48;96690.19;;;21.27;63.29
42001;BME280;27689;48.390;10.856;2023-10-09T11:26:35;96693.28;;;21.31;63.10
42001;BME280;27689;48.390;10.856;2023-10-09T11:29:24;96696.38;;;21.34;63.27
42001;BME280;27689;48.390;10.856;2023-10-09T11:32:35;96697.41;;;21.40;61.57
42001;BME280;27689;48.390;10.856;2023-10-09T11:35:21;96703.19;;;21.43;62.08
42001;BME280;27689;48.390;10.856;2023-10-09T11:38:11;96691.88;;;21.35;61.69
42001;BME280;27689;48.390;10.856;2023-10-09T11:41:21;96683.06;;;21.34;62.31
42001;BME280;27689;48.390;10.856;2023-10-09T11:44:08;96692.09;;;21.40;61.57
42001;BME280;27689;48.390;10.856;2023-10-09T11:47:17;96691.44;;;21.31;62.22
42001;BME280;27689;48.390;10.856;2023-10-09T11:50:01;96686.72;;;21.27;63.95
42001;BME280;27689;48.390;10.856;2023-10-09T11:52:58;96681.00;;;21.30;63.04
42001;BME280;27689;48.390;10.856;2023-10-09T11:56:01;96679.94;;;21.24;63.46
42001;BME280;27689;48.390;10.856;2023-10-09T11:58:47;96684.66;;;21.29;62.72
42001;BME280;27689;48.390;10.856;2023-10-09T12:01:34;96682.84;;;21.29;61.95
42001;BME280;27689;48.390;10.856;2023-10-09T12:04:21;96683.56;;;21.17;63.46
42001;BME280;27689;48.390;10.856;2023-10-09T12:07:13;96673.06;;;21.08;65.41
42001;BME280;27689;48.390;10.856;2023-10-09T12:09:57;96671.84;;;21.11;63.54
42001;BME280;27689;48.390;10.856;2023-10-09T12:12:41;96682.50;;;21.04;64.10
42001;BME280;27689;48.390;10.856;2023-10-09T12:15:31;96683.91;;;21.00;65.04
42001;BME280;27689;48.390;10.856;2023-10-09T12:18:22;96687.78;;;20.98;65.77
42001;BME280;27689;48.390;10.856;2023-10-09T12:21:09;96686.56;;;21.00;65.57
42001;BME280;27689;48.390;10.856;2023-10-09T12:23:59;96690.31;;;21.06;65.26
42001;BME280;27689;48.390;10.856;2023-10-09T12:26:44;96683.72;;;21.02;66.17
42001;BME280;27689;48.390;10.856;2023-10-09T12:29:29;96687.84;;;21.04;67.75
42001;BME280;27689;48.390;10.856;2023-10-09T12:32:14;96694.00;;;21.11;66.79
42001;BME280;27689;48.390;10.856;2023-10-09T12:35:03;96674.31;;;21.12;66.77
42001;BME280;27689;48.390;10.856;2023-10-09T12:37:59;96684.41;;;21.17;66.65
42001;BME280;27689;48.390;10.856;2023-10-09T12:40:44;96685.81;;;21.13;67.17
42001;BME280;27689;48.390;10.856;2023-10-09T12:43:35;96693.06;;;21.19;67.09
42001;BME280;27689;48.390;10.856;2023-10-09T12:46:22;96690.75;;;21.16;66.92
42001;BME280;27689;48.390;10.856;2023-10-09T12:49:07;96694.81;;;21.12;66.04
42001;BME280;27689;48.390;10.856;2023-10-09T12:51:52;96691.75;;;21.15;65.64
42001;BME280;27689;48.390;10.856;2023-10-09T12:54:36;96683.72;;;21.08;65.47
42001;BME280;27689;48.390;10.856;2023-10-09T12:57:20;96678.38;;;21.02;65.26
42001;BME280;27689;48.390;10.856;2023-10-09T13:00:04;96681.25;;;21.00;66.01
42001;BME280;27689;48.390;10.856;2023-10-09T13:02:54;96689.19;;;20.94;67.22
42001;BME280;27689;48.390;10.856;2023-10-09T13:05:38;96678.13;;;20.90;66.96
42001;BME280;27689;48.390;10.856;2023-10-09T13:08:34;96663.50;;;20.80;67.59
42001;BME280;27689;48.390;10.856;2023-10-09T13:11:24;96672.19;;;20.54;70.15
42001;BME280;27689;48.390;10.856;2023-10-09T13:14:09;96671.09;;;20.48;71.60
42001;BME280;27689;48.390;10.856;2023-10-09T13:17:01;96666.13;;;20.38;72.36
42001;BME280;27689;48.390;10.856;2023-10-09T13:19:53;96654.09;;;20.21;75.31
42001;BME280;27689;48.390;10.856;2023-10-09T13:22:40;96659.88;;;20.25;75.47
42001;BME280;27689;48.390;10.856;2023-10-09T13:25:25;96664.34;;;20.18;76.87
42001;BME280;27689;48.390;10.856;2023-10-09T13:28:15;96666.75;;;20.13;76.26
42001;BME280;27689;48.390;10.856;2023-10-09T13:31:04;96666.09;;;20.11;76.62
42001;BME280;27689;48.390;10.856;2023-10-09T13:33:49;96662.19;;;20.06;76.94
42001;BME280;27689;48.390;10.856;2023-10-09T13:36:33;96638.94;;;20.15;76.60
42001;BME280;27689;48.390;10.856;2023-10-09T13:39:17;96621.66;;;20.04;78.08
42001;BME280;27689;48.390;10.856;2023-10-09T13:42:05;96612.38;;;19.94;78.89
42001;BME280;27689;48.390;10.856;2023-10-09T13:44:51;96616.47;;;19.96;79.05
42001;BME280;27689;48.390;10.856;2023-10-09T13:47:37;96604.63;;;19.99;78.77
42001;BME280;27689;48.390;10.856;2023-10-09T13:50:24;96605.28;;;20.01;79.26
42001;BME280;27689;48.390;10.856;2023-10-09T13:53:16;96587.06;;;20.04;80.20
42001;BME280;27689;48.390;10.856;2023-10-09T13:56:00;96594.28;;;20.11;78.93
42001;BME280;27689;48.390;10.856;2023-10-09T13:58:51;96581.59;;;20.13;79.38
42001;BME280;27689;48.390;10.856;2023-10-09T14:01:35;96591.22;;;20.14;77.23
42001;BME280;27689;48.390;10.856;2023-10-09T14:04:20;96588.13;;;20.10;76.66
42001;BME280;27689;48.390;10.856;2023-10-09T14:07:04;96607.41;;;20.19;74.87
42001;BME280;27689;48.390;10.856;2023-10-09T14:09:51;96610.91;;;20.19;75.67
42001;BME280;27689;48.390;10.856;2023-10-09T14:12:51;96622.88;;;20.30;74.04
42001;BME280;27689;48.390;10.856;2023-10-09T14:15:38;96622.25;;;20.34;73.48
42001;BME280;27689;48.390;10.856;2023-10-09T14:18:24;96631.34;;;20.40;73.98
42001;BME280;27689;48.390;10.856;2023-10-09T14:21:08;96637.75;;;20.46;75.46
42001;BME280;27689;48.390;10.856;2023-10-09T14:23:59;96639.56;;;20.45;74.13
42001;BME280;27689;48.390;10.856;2023-10-09T14:26:43;96636.13;;;20.51;73.85
42001;BME280;27689;48.390;10.856;2023-10-09T14:29:30;96642.47;;;20.50;73.86
42001;BME280;27689;48.390;10.856;2023-10-09T14:32:15;96632.56;;;20.37;74.38
42001;BME280;27689;48.390;10.856;2023-10-09T14:34:59;96638.06;;;20.36;75.48
42001;BME280;27689;48.390;10.856;2023-10-09T14:37:46;96637.41;;;20.34;74.54
42001;BME280;27689;48.390;10.856;2023-10-09T14:40:30;96640.66;;;20.29;75.87
42001;BME280;27689;48.390;10.856;2023-10-09T14:43:15;96634.13;;;20.32;75.97
42001;BME280;27689;48.390;10.856;2023-10-09T14:46:14;96633.91;;;20.33;75.76
42001;BME280;27689;48.390;10.856;2023-10-09T14:48:58;96619.81;;;20.33;74.93
42001;BME280;27689;48.390;10.856;2023-10-09T14:51:44;96617.72;;;20.28;75.34
42001;BME280;27689;48.390;10.856;2023-10-09T14:54:30;96621.97;;;20.23;74.93
42001;BME280;27689;48.390;10.856;2023-10-09T14:57:14;96611.13;;;20.18;74.90
42001;BME280;27689;48.390;10.856;2023-10-09T14:59:59;96602.91;;;20.19;75.19